createdAt,value
2024-04-18T00:01:19.255Z,100.00
2024-04-18T00:06:23.566Z,100.00
2024-04-18T00:11:27.237Z,100.00
2024-04-18T00:16:31.988Z,99.69
2024-04-18T00:21:52.209Z,98.64
2024-04-18T00:27:02.300Z,97.16
2024-04-18T00:32:13.274Z,96.33
2024-04-18T00:37:38.500Z,95.55
2024-04-18T00:42:42.848Z,94.69
2024-04-18T00:47:50.347Z,93.73
2024-04-18T00:52:53.764Z,93.34
2024-04-18T00:58:05.176Z,92.30
2024-04-18T01:03:17.448Z,91.25
2024-04-18T01:08:21.107Z,89.90
2024-04-18T01:13:40.826Z,89.00
2024-04-18T01:19:01.359Z,88.32
2024-04-18T01:24:05.296Z,88.99
2024-04-18T01:29:08.529Z,89.22
2024-04-18T01:34:13.080Z,90.55
2024-04-18T01:39:16.951Z,91.14
2024-04-18T01:44:21.146Z,91.96
2024-04-18T01:49:45.391Z,91.92
2024-04-18T01:54:48.498Z,91.93
2024-04-18T02:00:07.859Z,91.92
2024-04-18T02:05:14.659Z,91.11
2024-04-18T02:10:20.659Z,89.60
2024-04-18T02:15:36.789Z,88.68
2024-04-18T02:20:49.800Z,87.32
2024-04-18T02:26:00.111Z,86.37
2024-04-18T02:31:05.056Z,84.67
2024-04-18T02:36:26.752Z,82.74
2024-04-18T02:41:51.145Z,81.03
2024-04-18T02:47:03.101Z,79.94
2024-04-18T02:52:07.058Z,79.56
2024-04-18T02:57:20.418Z,78.14
2024-04-18T03:02:29.113Z,77.10
2024-04-18T03:07:51.734Z,76.80
2024-04-18T03:12:55.901Z,77.01
2024-04-18T03:18:19.262Z,74.92
2024-04-18T03:23:32.207Z,73.97
2024-04-18T03:28:38.937Z,71.43
2024-04-18T03:33:44.869Z,70.67
2024-04-18T03:38:48.320Z,71.54
2024-04-18T03:43:51.916Z,71.75
2024-04-18T03:48:57.928Z,70.89
2024-04-18T03:54:02.139Z,68.23
2024-04-18T03:59:25.579Z,67.53
2024-04-18T04:04:31.222Z,67.40
2024-04-18T04:09:34.367Z,67.53
2024-04-18T04:14:37.396Z,66.29
2024-04-18T04:19:42.085Z,64.35
2024-04-18T04:24:45.989Z,62.43
2024-04-18T04:29:59.963Z,61.44
2024-04-18T04:35:03.488Z,60.65
2024-04-18T04:40:07.779Z,59.81
2024-04-18T04:45:12.643Z,56.91
2024-04-18T04:50:15.767Z,58.15
2024-04-18T04:55:18.730Z,58.21
2024-04-18T05:00:23.787Z,59.61
2024-04-18T05:05:33.031Z,58.90
2024-04-18T05:10:46.345Z,58.38
2024-04-18T05:15:54.395Z,58.53
2024-04-18T05:21:07.359Z,57.39
2024-04-18T05:26:34.132Z,56.58
2024-04-18T05:31:41.604Z,55.96
2024-04-18T05:36:47.385Z,54.96
2024-04-18T05:41:52.360Z,54.46
2024-04-18T05:47:09.214Z,52.08
2024-04-18T05:52:12.614Z,49.09
2024-04-18T05:57:18.078Z,49.20
2024-04-18T06:02:28.954Z,47.82
2024-04-18T06:07:32.782Z,49.08
2024-04-18T06:12:36.704Z,50.93
2024-04-18T06:17:42.034Z,50.36
2024-04-18T06:22:45.670Z,51.12
2024-04-18T06:28:01.592Z,49.75
2024-04-18T06:33:07.316Z,49.00
2024-04-18T06:38:10.488Z,46.03
2024-04-18T06:43:14.902Z,45.73
2024-04-18T06:48:18.210Z,44.36
2024-04-18T06:53:21.304Z,42.82
2024-04-18T06:58:25.026Z,41.48
2024-04-18T07:03:30.660Z,41.76
2024-04-18T07:08:33.899Z,41.13
2024-04-18T07:13:41.490Z,41.73
2024-04-18T07:19:04.899Z,42.91
2024-04-18T07:24:28.033Z,42.08
2024-04-18T07:29:31.663Z,41.76
2024-04-18T07:34:36.646Z,41.46
2024-04-18T07:39:45.878Z,40.93
2024-04-18T07:44:48.923Z,41.45
2024-04-18T07:49:52.954Z,41.57
2024-04-18T07:54:56.745Z,41.23
2024-04-18T08:00:00.720Z,40.50
2024-04-18T08:05:17.763Z,39.42
2024-04-18T08:10:24.830Z,39.21
2024-04-18T08:20:58.103Z,38.45
2024-04-18T08:26:01.271Z,37.31
2024-04-18T08:31:06.123Z,36.55
2024-04-18T08:36:09.325Z,37.04
2024-04-18T08:41:14.760Z,37.17
2024-04-18T08:46:19.993Z,36.03
2024-04-18T08:51:23.511Z,36.83
2024-04-18T08:56:27.072Z,36.28
2024-04-18T09:01:31.591Z,36.46
2024-04-18T09:06:35.080Z,37.05
2024-04-18T09:11:39.342Z,37.30
2024-04-18T09:16:45.119Z,36.86
2024-04-18T09:21:48.696Z,36.43
2024-04-18T09:26:52.230Z,35.98
2024-04-18T09:31:59.961Z,36.80
2024-04-18T09:37:07.300Z,36.33
2024-04-18T09:42:29.190Z,36.30
2024-04-18T09:47:34.217Z,36.33
2024-04-18T09:52:39.169Z,36.99
2024-04-18T09:57:44.652Z,37.43
2024-04-18T10:02:52.222Z,36.03
2024-04-18T10:07:59.786Z,36.22
2024-04-18T10:13:06.075Z,35.70
2024-04-18T10:18:22.193Z,36.23
2024-04-18T10:23:29.175Z,36.20
2024-04-18T10:28:36.067Z,36.38
2024-04-18T10:33:44.348Z,35.78
2024-04-18T10:38:49.238Z,35.41
2024-04-18T10:43:52.876Z,36.53
2024-04-18T10:48:59.218Z,36.44
2024-04-18T10:54:02.554Z,36.20
2024-04-18T10:59:09.285Z,36.49
2024-04-18T11:04:13.618Z,36.63
2024-04-18T11:09:18.591Z,36.55
2024-04-18T11:14:23.752Z,37.03
2024-04-18T11:19:28.119Z,37.21
2024-04-18T11:24:31.597Z,37.27
2024-04-18T11:29:35.191Z,36.79
2024-04-18T11:34:40.415Z,37.29
2024-04-18T11:39:43.973Z,37.51
2024-04-18T11:44:47.467Z,38.01
2024-04-18T11:49:52.146Z,38.65
2024-04-18T11:54:55.892Z,38.66
2024-04-18T12:00:13.458Z,38.94
2024-04-18T12:05:35.697Z,39.57
2024-04-18T12:10:40.020Z,39.61
2024-04-18T12:15:43.541Z,40.14
2024-04-18T12:21:06.060Z,40.42
2024-04-18T12:26:13.242Z,40.81
2024-04-18T12:31:22.747Z,41.04
2024-04-18T12:36:28.262Z,41.55
2024-04-18T12:41:52.178Z,41.91
2024-04-18T12:46:55.508Z,42.15
2024-04-18T12:51:59.422Z,42.73
2024-04-18T12:57:03.017Z,43.42
2024-04-18T13:02:07.737Z,43.85
2024-04-18T13:07:15.433Z,45.12
2024-04-18T13:12:39.935Z,46.47
2024-04-18T13:18:03.014Z,47.07
2024-04-18T13:23:06.792Z,47.35
2024-04-18T13:28:11.603Z,47.74
2024-04-18T13:33:16.175Z,47.81
2024-04-18T13:38:19.633Z,47.74
2024-04-18T13:43:31.894Z,47.41
2024-04-18T13:48:44.871Z,47.30
2024-04-18T13:53:47.760Z,46.92
2024-04-18T13:58:57.834Z,47.13
2024-04-18T14:04:04.793Z,46.41
2024-04-18T14:09:16.616Z,46.37
2024-04-18T14:14:19.482Z,46.37
2024-04-18T14:19:41.436Z,46.30
2024-04-18T14:24:44.756Z,46.76
2024-04-18T14:30:08.500Z,46.39
2024-04-18T14:35:12.243Z,46.57
2024-04-18T14:40:15.596Z,46.71
2024-04-18T14:45:20.366Z,47.00
2024-04-18T14:50:23.346Z,47.56
2024-04-18T14:55:40.276Z,48.19
2024-04-18T15:00:54.845Z,48.76
2024-04-18T15:06:00.769Z,49.21
2024-04-18T15:11:15.569Z,49.69
2024-04-18T15:16:37.441Z,50.55
2024-04-18T15:21:40.968Z,51.69
2024-04-18T15:26:47.946Z,53.31
2024-04-18T15:31:52.122Z,54.96
2024-04-18T15:37:13.770Z,57.44
2024-04-18T15:42:34.001Z,59.41
2024-04-18T15:47:39.131Z,60.65
2024-04-18T15:52:57.154Z,61.41
2024-04-18T15:58:05.144Z,62.00
2024-04-18T16:03:19.047Z,63.79
2024-04-18T16:08:29.122Z,64.01
2024-04-18T16:13:32.043Z,64.25
2024-04-18T16:18:54.012Z,64.80
2024-04-18T16:24:09.973Z,65.73
2024-04-18T16:29:13.310Z,66.91
2024-04-18T16:34:18.644Z,67.89
2024-04-18T16:39:32.976Z,68.71
2024-04-18T16:44:37.112Z,70.88
2024-04-18T16:49:47.104Z,72.07
2024-04-18T16:54:50.725Z,73.04
2024-04-18T17:00:14.288Z,74.06
2024-04-18T17:05:17.654Z,74.92
2024-04-18T17:10:21.163Z,75.53
2024-04-18T17:15:42.829Z,77.43
2024-04-18T17:20:46.182Z,78.53
2024-04-18T17:25:52.477Z,79.38
2024-04-18T17:30:56.050Z,79.72
2024-04-18T17:35:59.349Z,80.90
2024-04-18T17:41:20.753Z,81.47
2024-04-18T17:46:24.659Z,81.82
2024-04-18T17:51:27.770Z,82.90
2024-04-18T17:56:30.711Z,83.23
2024-04-18T18:01:34.464Z,83.82
2024-04-18T18:06:48.171Z,84.72
2024-04-18T18:11:51.181Z,85.42
2024-04-18T18:16:54.479Z,85.92
2024-04-18T18:22:01.151Z,86.90
2024-04-18T18:27:04.949Z,87.87
2024-04-18T18:32:15.116Z,88.73
2024-04-18T18:37:19.397Z,89.47
2024-04-18T18:42:42.927Z,90.01
2024-04-18T18:47:46.302Z,90.87
2024-04-18T18:52:56.860Z,91.18
2024-04-18T18:58:10.532Z,91.83
2024-04-18T19:03:14.834Z,92.13
2024-04-18T19:08:18.077Z,92.94
2024-04-18T19:13:30.300Z,93.91
2024-04-18T19:18:34.613Z,95.20
2024-04-18T19:23:38.635Z,96.26
2024-04-18T19:28:42.427Z,97.09
2024-04-18T19:33:46.334Z,98.71
2024-04-18T19:38:50.516Z,99.68
2024-04-18T19:44:02.804Z,100.00
2024-04-18T19:49:07.435Z,100.00
2024-04-18T19:54:29.052Z,100.00
2024-04-18T19:59:32.765Z,100.00
2024-04-18T20:04:36.218Z,100.00
2024-04-18T20:09:39.220Z,100.00
2024-04-18T20:14:42.847Z,100.00
2024-04-18T20:19:46.066Z,100.00
2024-04-18T20:24:49.215Z,100.00
2024-04-18T20:30:11.198Z,100.00
2024-04-18T20:35:34.143Z,100.00
2024-04-18T20:40:37.734Z,100.00
2024-04-18T20:45:41.408Z,100.00
2024-04-18T20:50:44.346Z,100.00
2024-04-18T20:55:47.305Z,100.00
2024-04-18T21:00:50.925Z,100.00
2024-04-18T21:05:54.065Z,100.00
2024-04-18T21:10:57.144Z,100.00
2024-04-18T21:16:01.197Z,100.00
2024-04-18T21:21:05.049Z,100.00
2024-04-18T21:26:08.634Z,100.00
2024-04-18T21:31:11.872Z,100.00
2024-04-18T21:36:14.857Z,100.00
2024-04-18T21:41:18.480Z,100.00
2024-04-18T21:46:22.300Z,100.00
2024-04-18T21:51:25.251Z,100.00
2024-04-18T21:56:28.379Z,100.00
2024-04-18T22:01:31.872Z,100.00
2024-04-18T22:06:35.052Z,100.00
2024-04-18T22:11:38.892Z,100.00
2024-04-18T22:16:43.747Z,100.00
2024-04-18T22:21:47.436Z,100.00
2024-04-18T22:26:50.442Z,100.00
2024-04-18T22:31:54.098Z,100.00
2024-04-18T22:36:57.218Z,100.00
2024-04-18T22:42:00.203Z,100.00
2024-04-18T22:47:03.421Z,100.00
2024-04-18T22:52:06.620Z,100.00
2024-04-18T22:57:09.635Z,100.00
2024-04-18T23:02:14.856Z,100.00
2024-04-18T23:07:18.370Z,100.00
2024-04-18T23:12:21.996Z,100.00
2024-04-18T23:17:25.725Z,100.00
2024-04-18T23:22:29.317Z,100.00
2024-04-18T23:27:32.423Z,100.00
2024-04-18T23:32:37.127Z,100.00
2024-04-18T23:37:40.540Z,100.00
2024-04-18T23:42:44.153Z,100.00
2024-04-18T23:47:48.011Z,100.00
2024-04-18T23:52:50.953Z,100.00
2024-04-18T23:57:53.926Z,100.00
